»·PEaware :: N143VT KRNO-KMFR

N143VT :: KRNO-KMFR

FLIGHT INFORMATION

Flight Status: Arrived
Operator: Privately registered:
United States
More flights under this callsign
Pilot: Anonymous 16492 (16492)
Aircraft: BOMBARDIER BD-100 CHALLENGER 300
(CL30)
More flights by this aircraft type
Origin: KRNO Reno/Tahoe Intl
United States
Destination: KMFR Rogue Valley Intl-Medford
United States
More flights between these airports :: More routes between these airports
Route: FMG8 FMG V452 LMT V122 LANKS
File this flight plan on PilotEdge
Remarks:
Altitude:
(Current/Filed)
26,000ft
Speed:
(Current/Filed)
440kts
Departed: 11-Dec-18 05:47 PM
Arrived: 11-Dec-18 06:57 PM
Distance/Time
Traveled:
223nm/1:10
Distance/Time
To Go:
Arrived

Flight Plot

Page will automatically refresh every two minutes.

Flight plan parsing failed; only flown route is shown


Map Options




Map Legend


Flown Route
Filed Route
Departure Airport
Arrival Airport
Navaid (VOR, NDB)
Fix

Horizontal Profiles

Position Reports

Time Latitude Longitude Heading Altitude Ground
Speed
11-Dec-18 17:24 39.502028 -119.764484 270 4421ft 0kts
11-Dec-18 17:25 39.502028 -119.764484 270 4421ft 0kts
11-Dec-18 17:26 39.502028 -119.764484 270 4421ft 0kts
11-Dec-18 17:27 39.502028 -119.764484 270 4421ft 0kts
11-Dec-18 17:28 39.502028 -119.764484 270 4421ft 0kts
11-Dec-18 17:29 39.502028 -119.764484 270 4421ft 0kts
11-Dec-18 17:30 39.502028 -119.764484 270 4421ft 0kts
11-Dec-18 17:31 39.502028 -119.764484 270 4421ft 0kts
11-Dec-18 17:31 39.502028 -119.764484 270 4421ft 0kts
11-Dec-18 17:32 39.502028 -119.764484 270 4421ft 0kts
11-Dec-18 17:34 39.502028 -119.764484 270 4421ft 0kts
11-Dec-18 17:34 39.502028 -119.764484 270 4421ft 0kts
11-Dec-18 17:35 39.502028 -119.764484 270 4421ft 0kts
11-Dec-18 17:36 39.502028 -119.764484 270 4421ft 0kts
11-Dec-18 17:37 39.502028 -119.764484 270 4421ft 0kts
11-Dec-18 17:38 39.502029 -119.764495 270 4421ft 0kts
11-Dec-18 17:39 39.502029 -119.764499 270 4421ft 0kts
11-Dec-18 17:40 39.501846 -119.765796 1 4421ft 20kts
11-Dec-18 17:41 39.509410 -119.765773 359 4421ft 22kts
11-Dec-18 17:42 39.513709 -119.765545 278 4421ft 0kts
11-Dec-18 17:43 39.513709 -119.765545 278 4421ft 0kts
11-Dec-18 17:44 39.513709 -119.765545 278 4421ft 0kts
11-Dec-18 17:45 39.513657 -119.766430 243 4421ft 12kts
11-Dec-18 17:46 39.506966 -119.766727 181 4421ft 101kts
11-Dec-18 17:47 39.461563 -119.765593 177 5803ft 198kts
11-Dec-18 17:48 39.410803 -119.732554 89 8365ft 247kts
11-Dec-18 17:49 39.459500 -119.687044 15 11640ft 245kts
11-Dec-18 17:50 39.525136 -119.663132 343 14624ft 249kts
11-Dec-18 17:51 39.586984 -119.702506 329 17440ft 254kts
11-Dec-18 17:52 39.649805 -119.747438 328 19558ft 280kts
11-Dec-18 17:53 39.728562 -119.805989 328 20595ft 355kts
11-Dec-18 17:54 39.814831 -119.871171 327 23210ft 371kts
11-Dec-18 17:55 39.911052 -119.944464 327 23239ft 407kts
11-Dec-18 17:56 40.004580 -120.015999 327 23245ft 388kts
11-Dec-18 17:57 40.097721 -120.087509 327 24589ft 387kts
11-Dec-18 17:58 40.189657 -120.158335 327 26243ft 392kts
11-Dec-18 17:59 40.288348 -120.234626 327 26252ft 430kts
11-Dec-18 18:00 40.391138 -120.314336 328 26240ft 433kts
11-Dec-18 18:01 40.494784 -120.395003 328 26207ft 435kts
11-Dec-18 18:02 40.597088 -120.474912 328 26181ft 429kts
11-Dec-18 18:03 40.698701 -120.554569 327 26178ft 425kts
11-Dec-18 18:04 40.799338 -120.633744 327 26178ft 422kts
11-Dec-18 18:05 40.898950 -120.712391 327 26181ft 419kts
11-Dec-18 18:06 40.997875 -120.790730 326 26181ft 414kts
11-Dec-18 18:07 41.095866 -120.868582 325 26181ft 411kts
11-Dec-18 18:08 41.190872 -120.944450 324 26183ft 409kts
11-Dec-18 18:09 41.287969 -121.022218 324 26183ft 408kts
11-Dec-18 18:10 41.384777 -121.100030 323 26181ft 407kts
11-Dec-18 18:11 41.480729 -121.177417 323 25727ft 404kts
11-Dec-18 18:12 41.576925 -121.255317 323 23442ft 408kts
11-Dec-18 18:13 41.665093 -121.326846 322 22563ft 363kts
11-Dec-18 18:14 41.748746 -121.395048 322 20995ft 353kts
11-Dec-18 18:15 41.830338 -121.461737 322 19310ft 345kts
11-Dec-18 18:16 41.910140 -121.527158 322 17578ft 337kts
11-Dec-18 18:17 41.987815 -121.591001 322 15789ft 328kts
11-Dec-18 18:18 42.063242 -121.653177 322 13925ft 320kts
11-Dec-18 18:19 42.136496 -121.715941 307 12032ft 300kts
11-Dec-18 18:20 42.172688 -121.799209 280 11981ft 227kts
11-Dec-18 18:21 42.188769 -121.868966 304 12003ft 209kts
11-Dec-18 18:22 42.232346 -121.936903 304 12000ft 269kts
11-Dec-18 18:23 42.283946 -122.020545 304 11995ft 311kts
11-Dec-18 18:24 42.340506 -122.113959 304 11992ft 336kts
11-Dec-18 18:25 42.397082 -122.207647 304 11989ft 321kts
11-Dec-18 18:26 42.449918 -122.294399 304 11996ft 310kts
11-Dec-18 18:27 42.503029 -122.381043 305 12003ft 303kts
11-Dec-18 18:28 42.555130 -122.465722 305 12005ft 298kts
11-Dec-18 18:29 42.593273 -122.557521 294 10969ft 286kts
11-Dec-18 18:30 42.626062 -122.650943 293 8827ft 282kts
11-Dec-18 18:31 42.633833 -122.748120 274 7017ft 270kts
11-Dec-18 18:32 42.636501 -122.844708 268 7003ft 257kts
11-Dec-18 18:33 42.614504 -122.936370 254 7000ft 245kts
11-Dec-18 18:34 42.560549 -122.962996 183 7001ft 214kts
11-Dec-18 18:35 42.505733 -122.941971 160 6051ft 209kts
11-Dec-18 18:36 42.452851 -122.913484 157 4897ft 182kts
11-Dec-18 18:37 42.401438 -122.886110 158 2943ft 187kts
11-Dec-18 18:38 42.349681 -122.859289 160 2801ft 205kts
11-Dec-18 18:39 42.320025 -122.876921 314 3715ft 186kts
11-Dec-18 18:40 42.369766 -122.891202 8 5880ft 189kts
11-Dec-18 18:41 42.420684 -122.885047 349 5910ft 189kts
11-Dec-18 18:42 42.472663 -122.879669 14 6045ft 199kts
11-Dec-18 18:43 42.525412 -122.855559 14 6397ft 203kts
11-Dec-18 18:44 42.579042 -122.838227 335 6875ft 215kts
11-Dec-18 18:45 42.643419 -122.875578 334 7113ft 277kts
11-Dec-18 18:46 42.708144 -122.913350 334 7096ft 223kts
11-Dec-18 18:47 42.740612 -122.956239 255 7102ft 158kts
11-Dec-18 18:48 42.717881 -122.997127 181 6892ft 181kts
11-Dec-18 18:49 42.657014 -123.000514 184 7121ft 257kts
11-Dec-18 18:50 42.589811 -122.986146 160 5885ft 227kts
11-Dec-18 18:51 42.539753 -122.959849 159 4670ft 163kts
11-Dec-18 18:52 42.504174 -122.941128 158 3839ft 130kts
11-Dec-18 18:53 42.469932 -122.923116 158 3160ft 132kts
11-Dec-18 18:54 42.435840 -122.905205 158 2430ft 131kts
11-Dec-18 18:55 42.404087 -122.888546 158 1761ft 119kts
11-Dec-18 18:56 42.377330 -122.874506 158 1339ft 39kts
11-Dec-18 18:57 42.376142 -122.875198 283 1339ft 0kts
11-Dec-18 18:58 42.376142 -122.875198 283 1339ft 0kts
11-Dec-18 18:59 42.376208 -122.875402 302 1339ft 8kts
11-Dec-18 19:00 42.375433 -122.877826 205 1339ft 8kts
11-Dec-18 19:01 42.374946 -122.878338 295 1339ft 0kts
11-Dec-18 19:02 42.374946 -122.878338 295 1339ft 0kts
11-Dec-18 19:03 42.374946 -122.878338 295 1339ft 0kts
11-Dec-18 19:04 42.374946 -122.878338 295 1339ft 0kts
11-Dec-18 19:05 42.374946 -122.878338 295 1339ft 0kts

Navigation Log

Ident Type
Flight plan parsing failed, navigation log unavailable